createdAt,value
2018-04-16T00:00:41.583Z,99719
2018-04-16T00:05:43.213Z,99713
2018-04-16T00:10:45.556Z,99702
2018-04-16T00:15:47.097Z,99704
2018-04-16T00:20:48.628Z,99694
2018-04-16T00:25:50.161Z,99690
2018-04-16T00:30:51.706Z,99689
2018-04-16T00:35:59.268Z,99690
2018-04-16T00:41:06.894Z,99693
2018-04-16T00:46:15.198Z,99698
2018-04-16T00:51:22.763Z,99705
2018-04-16T00:56:30.357Z,99709
2018-04-16T01:01:37.900Z,99716
2018-04-16T01:06:45.433Z,99705
2018-04-16T01:11:52.910Z,99717
2018-04-16T01:17:00.581Z,99723
2018-04-16T01:22:08.268Z,99727
2018-04-16T01:27:16.007Z,99727
2018-04-16T01:32:24.283Z,99726
2018-04-16T01:37:31.940Z,99720
2018-04-16T01:42:39.520Z,99720
2018-04-16T01:47:47.024Z,99718
2018-04-16T02:08:54.246Z,99731
2018-04-16T02:14:02.523Z,99730
2018-04-16T02:19:10.069Z,99730
2018-04-16T02:24:17.823Z,99725
2018-04-16T02:29:25.531Z,99728
2018-04-16T02:34:33.120Z,99724
2018-04-16T02:39:41.436Z,99732
2018-04-16T02:44:49.657Z,99741
2018-04-16T02:49:57.950Z,99739
2018-04-16T02:55:05.565Z,99739
2018-04-16T03:00:13.158Z,99743
2018-04-16T03:05:20.692Z,99744
2018-04-16T03:10:28.218Z,99742
2018-04-16T03:15:35.828Z,99746
2018-04-16T03:20:43.449Z,99744
2018-04-16T03:25:51.907Z,99747
2018-04-16T03:30:59.445Z,99746
2018-04-16T03:36:06.951Z,99753
2018-04-16T03:41:14.413Z,99749
2018-04-16T03:46:21.875Z,99767
2018-04-16T03:51:26.213Z,99778
2018-04-16T03:56:28.540Z,99776
2018-04-16T04:01:30.412Z,99789
2018-04-16T04:06:31.967Z,99791
2018-04-16T04:11:34.248Z,99788
2018-04-16T04:16:37.463Z,99791
2018-04-16T04:21:39.766Z,99796
2018-04-16T04:42:45.122Z,99820
2018-04-16T04:47:46.896Z,99813
2018-04-16T04:52:48.495Z,99825
2018-04-16T04:57:50.048Z,99822
2018-04-16T05:02:51.581Z,99813
2018-04-16T05:07:53.857Z,99823
2018-04-16T05:12:56.154Z,99824
2018-04-16T05:17:58.441Z,99818
2018-04-16T05:23:00.776Z,99828
2018-04-16T05:28:02.312Z,99830
2018-04-16T05:33:03.856Z,99839
2018-04-16T05:38:06.054Z,99839
2018-04-16T05:43:07.555Z,99845
2018-04-16T05:48:09.104Z,99854
2018-04-16T05:53:10.679Z,99857
2018-04-16T05:58:12.223Z,99863
2018-04-16T06:03:13.764Z,99870
2018-04-16T06:08:15.496Z,99863
2018-04-16T06:13:17.124Z,99850
2018-04-16T06:18:18.642Z,99853
2018-04-16T06:23:20.199Z,99865
2018-04-16T06:28:21.765Z,99885
2018-04-16T06:33:23.335Z,99892
2018-04-16T06:38:25.023Z,99902
2018-04-16T06:43:26.532Z,99901
2018-04-16T06:48:28.849Z,99911
2018-04-16T06:53:30.409Z,99911
2018-04-16T06:58:31.949Z,99921
2018-04-16T07:03:34.299Z,99928
2018-04-16T07:08:35.849Z,99923
2018-04-16T07:13:37.362Z,99937
2018-04-16T07:18:39.617Z,99938
2018-04-16T07:23:41.231Z,99953
2018-04-16T07:28:43.549Z,99957
2018-04-16T07:33:45.076Z,99968
2018-04-16T07:38:47.335Z,99965
2018-04-16T07:43:48.902Z,99964
2018-04-16T07:48:50.528Z,99970
2018-04-16T07:53:52.071Z,99975
2018-04-16T07:58:54.343Z,99976
2018-04-16T08:03:56.625Z,99982
2018-04-16T08:08:58.246Z,99972
2018-04-16T08:13:59.717Z,99985
2018-04-16T08:19:01.259Z,99986
2018-04-16T08:24:02.749Z,99983
2018-04-16T08:29:04.302Z,99991
2018-04-16T08:34:05.835Z,99989
2018-04-16T08:39:08.135Z,99988
2018-04-16T08:44:10.416Z,99993
2018-04-16T08:49:12.716Z,100003
2018-04-16T08:54:14.310Z,99990
2018-04-16T08:59:15.835Z,99989
2018-04-16T09:04:18.127Z,99992
2018-04-16T09:09:20.435Z,99991
2018-04-16T09:14:22.074Z,99994
2018-04-16T09:19:24.334Z,100004
2018-04-16T09:24:25.871Z,100003
2018-04-16T09:29:27.339Z,100007
2018-04-16T09:34:28.887Z,100013
2018-04-16T09:39:30.452Z,100008
2018-04-16T09:44:32.108Z,100008
2018-04-16T09:49:34.525Z,100012
2018-04-16T09:54:36.088Z,100019
2018-04-16T09:59:37.602Z,100017
2018-04-16T10:04:39.135Z,100015
2018-04-16T10:09:40.679Z,100026
2018-04-16T10:14:42.239Z,100023
2018-04-16T10:19:44.552Z,100014
2018-04-16T10:24:46.100Z,100014
2018-04-16T10:29:54.527Z,100022
2018-04-16T10:34:56.795Z,100014
2018-04-16T10:39:59.242Z,100019
2018-04-16T10:45:00.726Z,100012
2018-04-16T10:50:02.287Z,100017
2018-04-16T10:55:03.869Z,100019
2018-04-16T11:00:05.510Z,100024
2018-04-16T11:05:07.085Z,100022
2018-04-16T11:10:08.645Z,100018
2018-04-16T11:15:10.213Z,100014
2018-04-16T11:20:11.776Z,100016
2018-04-16T11:25:13.434Z,100018
2018-04-16T11:30:14.955Z,100014
2018-04-16T11:35:16.487Z,100016
2018-04-16T11:40:18.238Z,100021
2018-04-16T11:45:19.782Z,100025
2018-04-16T11:50:22.094Z,100019
2018-04-16T11:55:23.690Z,100024
2018-04-16T12:00:25.205Z,100023
2018-04-16T12:05:27.556Z,100046
2018-04-16T12:10:29.113Z,100037
2018-04-16T12:15:30.644Z,100047
2018-04-16T12:20:32.340Z,100051
2018-04-16T12:25:34.094Z,100051
2018-04-16T12:30:35.640Z,100051
2018-04-16T12:35:37.938Z,100051
2018-04-16T12:40:39.459Z,100040
2018-04-16T12:45:41.000Z,100053
2018-04-16T12:50:42.743Z,100055
2018-04-16T12:55:45.061Z,100054
2018-04-16T13:00:46.636Z,100060
2018-04-16T13:05:48.236Z,100062
2018-04-16T13:10:49.905Z,100064
2018-04-16T13:15:51.447Z,100062
2018-04-16T13:20:52.967Z,100061
2018-04-16T13:25:55.439Z,100059
2018-04-16T13:30:57.048Z,100062
2018-04-16T13:35:58.723Z,100062
2018-04-16T13:41:00.309Z,100069
2018-04-16T13:46:01.810Z,100074
2018-04-16T13:51:03.327Z,100068
2018-04-16T13:56:04.870Z,100081
2018-04-16T14:01:07.163Z,100066
2018-04-16T14:06:08.953Z,100059
2018-04-16T14:11:10.583Z,100066
2018-04-16T14:16:12.208Z,100067
2018-04-16T14:21:13.799Z,100063
2018-04-16T14:26:15.331Z,100066
2018-04-16T14:31:16.920Z,100069
2018-04-16T14:36:18.458Z,100080
2018-04-16T14:41:20.112Z,100085
2018-04-16T14:46:22.449Z,100089
2018-04-16T14:51:23.953Z,100086
2018-04-16T14:56:26.231Z,100091
2018-04-16T15:01:27.779Z,100091
2018-04-16T15:06:29.314Z,100088
2018-04-16T15:11:30.910Z,100088
2018-04-16T15:16:32.635Z,100086
2018-04-16T15:21:34.891Z,100096
2018-04-16T15:26:36.689Z,100091
2018-04-16T15:31:38.256Z,100085
2018-04-16T15:36:40.104Z,100090
2018-04-16T15:41:41.652Z,100095
2018-04-16T15:46:43.203Z,100097
2018-04-16T15:51:44.694Z,100092
2018-04-16T15:56:46.221Z,100092
2018-04-16T16:01:47.752Z,100099
2018-04-16T16:06:49.296Z,100100
2018-04-16T16:11:51.005Z,100109
2018-04-16T16:16:53.401Z,100114
2018-04-16T16:21:55.025Z,100118
2018-04-16T16:26:56.766Z,100134
2018-04-16T16:31:58.522Z,100125
2018-04-16T16:37:00.941Z,100132
2018-04-16T16:42:02.500Z,100131
2018-04-16T16:47:04.064Z,100130
2018-04-16T16:52:05.609Z,100129
2018-04-16T16:57:07.231Z,100130
2018-04-16T17:02:08.819Z,100140
2018-04-16T17:07:10.405Z,100147
2018-04-16T17:12:12.711Z,100149
2018-04-16T17:17:14.332Z,100160
2018-04-16T17:22:15.876Z,100149
2018-04-16T17:27:17.397Z,100166
2018-04-16T17:32:19.855Z,100160
2018-04-16T17:37:21.466Z,100172
2018-04-16T17:42:23.873Z,100175
2018-04-16T17:47:25.467Z,100175
2018-04-16T17:52:27.116Z,100179
2018-04-16T17:57:28.864Z,100187
2018-04-16T18:02:31.203Z,100190
2018-04-16T18:07:32.880Z,100202
2018-04-16T18:12:34.446Z,100210
2018-04-16T18:17:42.984Z,100232
2018-04-16T18:22:44.580Z,100244
2018-04-16T18:27:47.210Z,100263
2018-04-16T18:32:48.857Z,100279
2018-04-16T18:37:51.201Z,100286
2018-04-16T18:42:52.793Z,100295
2018-04-16T18:47:55.164Z,100303
2018-04-16T18:52:56.725Z,100308
2018-04-16T18:57:58.303Z,100314
2018-04-16T19:02:59.832Z,100312
2018-04-16T19:08:01.402Z,100336
2018-04-16T19:13:03.246Z,100340
2018-04-16T19:18:05.551Z,100357
2018-04-16T19:23:07.292Z,100365
2018-04-16T19:28:15.562Z,100364
2018-04-16T19:33:23.365Z,100366
2018-04-16T19:38:25.328Z,100377
2018-04-16T19:43:26.907Z,100379
2018-04-16T20:04:27.110Z,100416
2018-04-16T20:09:28.815Z,100428
2018-04-16T20:14:30.329Z,100427
2018-04-16T20:19:31.933Z,100446
2018-04-16T20:24:34.985Z,100452
2018-04-16T20:29:36.856Z,100449
2018-04-16T20:34:38.450Z,100467
2018-04-16T20:39:40.024Z,100475
2018-04-16T20:44:41.536Z,100476
2018-04-16T20:49:43.120Z,100477
2018-04-16T20:54:44.797Z,100476
2018-04-16T20:59:46.534Z,100475
2018-04-16T21:04:48.872Z,100489
2018-04-16T21:09:50.457Z,100490
2018-04-16T21:14:52.060Z,100493
2018-04-16T21:19:53.833Z,100493
2018-04-16T21:24:55.405Z,100494
2018-04-16T21:29:56.984Z,100498
2018-04-16T21:34:58.681Z,100506
2018-04-16T21:40:00.259Z,100522
2018-04-16T21:45:01.866Z,100520
2018-04-16T21:50:04.164Z,100535
2018-04-16T21:55:06.503Z,100545
2018-04-16T22:00:08.039Z,100550
2018-04-16T22:05:09.596Z,100539
2018-04-16T22:10:11.350Z,100540
2018-04-16T22:15:13.679Z,100553
2018-04-16T22:20:15.268Z,100555
2018-04-16T22:25:16.833Z,100572
2018-04-16T22:30:18.401Z,100578
2018-04-16T22:35:19.979Z,100576
2018-04-16T22:40:21.532Z,100586
2018-04-16T22:45:23.169Z,100587
2018-04-16T22:50:24.868Z,100596
2018-04-16T22:55:26.413Z,100598
2018-04-16T23:00:27.975Z,100596
2018-04-16T23:05:29.526Z,100603
2018-04-16T23:10:31.791Z,100612
2018-04-16T23:15:33.378Z,100609
2018-04-16T23:20:35.660Z,100613
2018-04-16T23:25:37.965Z,100615
2018-04-16T23:30:39.525Z,100613
2018-04-16T23:35:41.889Z,100625
2018-04-16T23:40:43.466Z,100632
2018-04-16T23:45:45.098Z,100631
2018-04-16T23:50:46.655Z,100644
2018-04-16T23:55:48.281Z,100645
